createdAt,value
2023-03-10T00:02:23.713Z,96733.31
2023-03-10T00:04:53.089Z,96725.88
2023-03-10T00:07:20.392Z,96731.44
2023-03-10T00:09:47.140Z,96715.59
2023-03-10T00:12:13.915Z,96712.09
2023-03-10T00:14:40.338Z,96710.03
2023-03-10T00:17:07.267Z,96704.69
2023-03-10T00:19:33.687Z,96706.31
2023-03-10T00:22:00.440Z,96704.47
2023-03-10T00:24:27.297Z,96708.59
2023-03-10T00:26:53.758Z,96699.31
2023-03-10T00:29:20.311Z,96695.63
2023-03-10T00:31:46.832Z,96686.16
2023-03-10T00:34:13.646Z,96688.03
2023-03-10T00:36:40.455Z,96689.03
2023-03-10T00:39:10.763Z,96684.50
2023-03-10T00:41:39.127Z,96688.63
2023-03-10T00:44:06.816Z,96675.44
2023-03-10T00:46:34.316Z,96675.03
2023-03-10T00:49:00.952Z,96681.41
2023-03-10T00:51:28.315Z,96678.13
2023-03-10T00:53:55.133Z,96672.38
2023-03-10T00:56:24.370Z,96676.25
2023-03-10T00:58:53.090Z,96681.84
2023-03-10T01:01:23.911Z,96680.63
2023-03-10T01:03:52.074Z,96669.91
2023-03-10T01:06:19.035Z,96673.19
2023-03-10T01:08:45.457Z,96670.13
2023-03-10T01:11:24.541Z,96655.25
2023-03-10T01:13:52.335Z,96656.06
2023-03-10T01:16:19.471Z,96647.22
2023-03-10T01:18:45.930Z,96640.00
2023-03-10T01:21:21.472Z,96640.84
2023-03-10T01:23:48.985Z,96643.94
2023-03-10T01:26:17.360Z,96645.16
2023-03-10T01:28:45.583Z,96642.50
2023-03-10T01:31:12.747Z,96641.69
2023-03-10T01:33:41.011Z,96634.84
2023-03-10T01:36:09.374Z,96627.47
2023-03-10T01:38:36.588Z,96632.38
2023-03-10T01:41:03.456Z,96638.59
2023-03-10T01:43:48.174Z,96634.03
2023-03-10T01:46:32.601Z,96631.56
2023-03-10T01:49:14.330Z,96639.19
2023-03-10T01:51:45.833Z,96632.81
2023-03-10T01:54:20.361Z,96633.22
2023-03-10T01:56:49.201Z,96639.81
2023-03-10T01:59:15.661Z,96630.13
2023-03-10T02:04:23.657Z,96635.28
2023-03-10T02:06:52.127Z,96630.75
2023-03-10T02:09:20.781Z,96629.31
2023-03-10T02:11:48.190Z,96626.41
2023-03-10T02:14:15.079Z,96626.00
2023-03-10T02:16:41.718Z,96624.38
2023-03-10T02:19:31.763Z,96636.72
2023-03-10T02:22:05.070Z,96637.13
2023-03-10T02:24:53.995Z,96632.41
2023-03-10T02:27:27.350Z,96634.44
2023-03-10T02:30:00.640Z,96636.28
2023-03-10T02:32:30.656Z,96631.34
2023-03-10T02:34:57.775Z,96629.31
2023-03-10T02:37:30.427Z,96632.81
2023-03-10T02:39:57.233Z,96631.56
2023-03-10T02:42:26.724Z,96631.56
2023-03-10T02:44:53.975Z,96620.84
2023-03-10T02:47:20.824Z,96619.41
2023-03-10T02:49:47.267Z,96616.94
2023-03-10T02:52:41.416Z,96619.41
2023-03-10T02:55:08.178Z,96610.34
2023-03-10T02:57:34.787Z,96604.16
2023-03-10T03:00:01.183Z,96601.28
2023-03-10T03:02:27.615Z,96600.06
2023-03-10T03:04:54.003Z,96597.59
2023-03-10T03:07:20.635Z,96601.28
2023-03-10T03:09:47.013Z,96589.56
2023-03-10T03:12:13.761Z,96600.06
2023-03-10T03:14:40.237Z,96596.75
2023-03-10T03:17:06.744Z,96595.50
2023-03-10T03:19:33.242Z,96605.19
2023-03-10T03:21:59.664Z,96605.81
2023-03-10T03:24:26.307Z,96606.19
2023-03-10T03:26:52.859Z,96607.84
2023-03-10T03:29:19.795Z,96619.59
2023-03-10T03:31:46.271Z,96618.13
2023-03-10T03:34:13.142Z,96614.84
2023-03-10T03:36:39.702Z,96616.91
2023-03-10T03:39:07.005Z,96608.25
2023-03-10T03:41:34.397Z,96605.56
2023-03-10T03:44:00.873Z,96609.69
2023-03-10T03:46:27.498Z,96592.59
2023-03-10T03:48:53.943Z,96597.94
2023-03-10T03:51:20.476Z,96594.44
2023-03-10T03:53:46.836Z,96587.78
2023-03-10T03:56:13.448Z,96593.94
2023-03-10T03:58:40.053Z,96595.38
2023-03-10T04:01:06.441Z,96602.34
2023-03-10T04:03:32.896Z,96608.28
2023-03-10T04:05:59.444Z,96599.44
2023-03-10T04:08:25.939Z,96594.91
2023-03-10T04:10:54.044Z,96593.66
2023-03-10T04:13:20.838Z,96593.28
2023-03-10T04:15:47.309Z,96587.75
2023-03-10T04:18:13.682Z,96581.97
2023-03-10T04:20:40.433Z,96579.09
2023-03-10T04:23:07.185Z,96570.66
2023-03-10T04:25:33.596Z,96575.41
2023-03-10T04:28:00.037Z,96577.72
2023-03-10T04:30:29.650Z,96578.53
2023-03-10T04:33:01.141Z,96568.22
2023-03-10T04:35:28.889Z,96572.34
2023-03-10T04:37:55.342Z,96571.09
2023-03-10T04:40:21.967Z,96562.44
2023-03-10T04:42:48.404Z,96561.25
2023-03-10T04:45:15.000Z,96568.03
2023-03-10T04:47:41.597Z,96545.00
2023-03-10T04:50:09.974Z,96560.41
2023-03-10T04:52:36.341Z,96550.75
2023-03-10T04:55:03.583Z,96557.97
2023-03-10T04:57:30.062Z,96546.88
2023-03-10T04:59:56.492Z,96558.56
2023-03-10T05:02:22.900Z,96545.41
2023-03-10T05:04:49.811Z,96558.38
2023-03-10T05:07:16.289Z,96554.44
2023-03-10T05:09:42.721Z,96549.72
2023-03-10T05:12:10.203Z,96543.97
2023-03-10T05:14:38.318Z,96542.50
2023-03-10T05:17:04.956Z,96536.53
2023-03-10T05:19:34.363Z,96540.22
2023-03-10T05:22:01.745Z,96533.66
2023-03-10T05:24:28.478Z,96534.03
2023-03-10T05:26:54.877Z,96530.34
2023-03-10T05:29:21.629Z,96531.81
2023-03-10T05:31:48.123Z,96526.84
2023-03-10T05:34:15.204Z,96526.25
2023-03-10T05:36:43.097Z,96527.91
2023-03-10T05:39:10.901Z,96532.84
2023-03-10T05:41:38.013Z,96532.03
2023-03-10T05:44:04.580Z,96537.31
2023-03-10T05:46:31.551Z,96543.06
2023-03-10T05:48:58.015Z,96537.94
2023-03-10T05:51:24.519Z,96543.88
2023-03-10T05:53:50.877Z,96541.41
2023-03-10T05:56:19.357Z,96546.50
2023-03-10T05:58:46.808Z,96538.53
2023-03-10T06:01:13.765Z,96537.59
2023-03-10T06:03:40.629Z,96544.22
2023-03-10T06:06:07.662Z,96537.59
2023-03-10T06:08:34.496Z,96536.16
2023-03-10T06:11:00.974Z,96533.91
2023-03-10T06:13:27.813Z,96551.38
2023-03-10T06:16:01.824Z,96555.47
2023-03-10T06:18:29.444Z,96556.91
2023-03-10T06:20:56.840Z,96558.97
2023-03-10T06:23:24.501Z,96554.47
2023-03-10T06:26:07.164Z,96561.41
2023-03-10T06:28:36.610Z,96570.41
2023-03-10T06:31:07.127Z,96560.19
2023-03-10T06:33:34.659Z,96561.84
2023-03-10T06:36:01.705Z,96555.03
2023-03-10T06:38:28.714Z,96558.38
2023-03-10T06:40:55.151Z,96556.94
2023-03-10T06:43:21.610Z,96562.31
2023-03-10T06:45:49.969Z,96557.75
2023-03-10T06:48:17.167Z,96567.81
2023-03-10T06:50:47.824Z,96572.53
2023-03-10T06:53:16.692Z,96574.59
2023-03-10T06:55:43.082Z,96571.31
2023-03-10T06:58:09.501Z,96566.44
2023-03-10T07:00:35.861Z,96565.00
2023-03-10T07:03:02.242Z,96566.22
2023-03-10T07:05:28.632Z,96553.34
2023-03-10T07:07:55.567Z,96569.97
2023-03-10T07:10:22.771Z,96567.31
2023-03-10T07:12:55.059Z,96575.38
2023-03-10T07:15:25.743Z,96574.16
2023-03-10T07:17:52.806Z,96578.47
2023-03-10T07:20:19.360Z,96589.56
2023-03-10T07:22:45.749Z,96577.00
2023-03-10T07:25:12.201Z,96564.84
2023-03-10T07:27:38.880Z,96565.28
2023-03-10T07:30:05.983Z,96566.75
2023-03-10T07:32:32.696Z,96571.28
2023-03-10T07:34:59.200Z,96559.53
2023-03-10T07:37:25.646Z,96565.72
2023-03-10T07:39:54.381Z,96571.91
2023-03-10T07:42:21.036Z,96577.25
2023-03-10T07:44:47.427Z,96576.41
2023-03-10T07:47:13.788Z,96578.91
2023-03-10T07:49:46.311Z,96579.31
2023-03-10T07:52:16.207Z,96572.16
2023-03-10T07:54:44.488Z,96563.28
2023-03-10T07:57:15.532Z,96561.66
2023-03-10T07:59:42.614Z,96565.81
2023-03-10T08:02:13.118Z,96570.78
2023-03-10T08:04:40.843Z,96575.75
2023-03-10T08:07:08.500Z,96577.38
2023-03-10T08:09:35.644Z,96582.75
2023-03-10T08:12:03.346Z,96574.91
2023-03-10T08:14:31.358Z,96568.28
2023-03-10T08:16:58.540Z,96570.75
2023-03-10T08:19:26.611Z,96571.75
2023-03-10T08:21:57.646Z,96573.81
2023-03-10T08:24:25.960Z,96576.06
2023-03-10T08:26:52.382Z,96568.44
2023-03-10T08:29:18.984Z,96570.66
2023-03-10T08:31:45.524Z,96562.88
2023-03-10T08:34:12.349Z,96562.41
2023-03-10T08:36:40.080Z,96562.84
2023-03-10T08:39:07.784Z,96564.69
2023-03-10T08:41:38.287Z,96552.09
2023-03-10T08:44:05.498Z,96556.63
2023-03-10T08:46:33.119Z,96559.53
2023-03-10T08:49:00.404Z,96564.66
2023-03-10T08:51:28.103Z,96544.81
2023-03-10T08:53:55.171Z,96557.00
2023-03-10T08:56:23.008Z,96554.53
2023-03-10T08:58:49.811Z,96551.66
2023-03-10T09:01:17.445Z,96561.09
2023-03-10T09:03:45.616Z,96572.69
2023-03-10T09:06:13.781Z,96571.50
2023-03-10T09:08:41.228Z,96565.53
2023-03-10T09:11:09.167Z,96559.56
2023-03-10T09:13:35.552Z,96563.91
2023-03-10T09:16:01.962Z,96578.97
2023-03-10T09:18:28.521Z,96580.59
2023-03-10T09:20:54.955Z,96584.31
2023-03-10T09:23:21.462Z,96573.34
2023-03-10T09:25:48.813Z,96573.59
2023-03-10T09:28:17.477Z,96562.00
2023-03-10T09:30:45.363Z,96563.25
2023-03-10T09:33:20.500Z,96569.44
2023-03-10T09:36:05.012Z,96561.78
2023-03-10T09:38:32.210Z,96554.97
2023-03-10T09:41:09.893Z,96558.88
2023-03-10T09:43:50.721Z,96565.47
2023-03-10T09:46:23.454Z,96561.16
2023-03-10T09:49:09.428Z,96559.03
2023-03-10T09:51:41.056Z,96551.59
2023-03-10T09:54:13.094Z,96554.44
2023-03-10T09:56:39.534Z,96552.78
2023-03-10T09:59:16.900Z,96556.84
2023-03-10T10:01:47.212Z,96558.91
2023-03-10T10:04:18.589Z,96557.13
2023-03-10T10:06:47.066Z,96549.38
2023-03-10T10:09:42.609Z,96553.31
2023-03-10T10:12:18.083Z,96558.28
2023-03-10T10:14:55.270Z,96543.31
2023-03-10T10:17:56.794Z,96551.63
2023-03-10T10:20:34.901Z,96552.88
2023-03-10T10:23:01.275Z,96545.44
2023-03-10T10:25:31.960Z,96548.34
2023-03-10T10:28:01.337Z,96550.31
2023-03-10T10:30:37.312Z,96543.81
2023-03-10T10:33:06.205Z,96541.38
2023-03-10T10:35:39.410Z,96540.94
2023-03-10T10:38:13.254Z,96528.78
2023-03-10T10:41:02.647Z,96523.16
2023-03-10T10:43:31.982Z,96536.91
2023-03-10T10:46:08.198Z,96542.28
2023-03-10T10:48:44.057Z,96543.44
2023-03-10T10:51:20.948Z,96543.63
2023-03-10T10:53:48.188Z,96545.50
2023-03-10T10:56:17.451Z,96544.47
2023-03-10T10:59:00.181Z,96538.19
2023-03-10T11:01:27.058Z,96542.84
2023-03-10T11:04:07.039Z,96522.13
2023-03-10T11:06:34.837Z,96526.59
2023-03-10T11:09:12.460Z,96529.22
2023-03-10T11:11:49.944Z,96521.06
2023-03-10T11:14:16.275Z,96515.63
2023-03-10T11:16:51.092Z,96515.84
2023-03-10T11:19:49.758Z,96513.72
2023-03-10T11:22:19.164Z,96506.38
2023-03-10T11:25:10.037Z,96506.81
2023-03-10T11:27:46.223Z,96501.66
2023-03-10T11:30:18.328Z,96515.09
2023-03-10T11:32:59.503Z,96502.06
2023-03-10T11:35:49.272Z,96516.94
2023-03-10T11:38:18.655Z,96517.66
2023-03-10T11:40:58.554Z,96524.81
2023-03-10T11:43:30.020Z,96526.53
2023-03-10T11:46:00.698Z,96540.22
2023-03-10T11:48:43.120Z,96543.91
2023-03-10T11:51:23.155Z,96539.09
2023-03-10T11:53:55.309Z,96545.34
2023-03-10T11:56:24.147Z,96543.75
2023-03-10T11:59:13.633Z,96548.34
2023-03-10T12:02:07.367Z,96543.84
2023-03-10T12:04:47.330Z,96547.19
2023-03-10T12:07:27.110Z,96541.19
2023-03-10T12:09:57.586Z,96545.56
2023-03-10T12:12:32.203Z,96544.34
2023-03-10T12:15:01.419Z,96539.41
2023-03-10T12:17:28.600Z,96534.91
2023-03-10T12:20:32.952Z,96538.44
2023-03-10T12:23:00.292Z,96548.13
2023-03-10T12:25:29.766Z,96551.88
2023-03-10T12:28:18.003Z,96550.41
2023-03-10T12:30:51.030Z,96548.78
2023-03-10T12:33:39.547Z,96548.34
2023-03-10T12:36:17.953Z,96555.97
2023-03-10T12:38:53.976Z,96553.28
2023-03-10T12:41:26.291Z,96548.53
2023-03-10T12:43:54.328Z,96544.03
2023-03-10T12:46:40.905Z,96552.69
2023-03-10T12:49:12.992Z,96535.19
2023-03-10T12:51:44.418Z,96523.44
2023-03-10T12:54:47.829Z,96522.22
2023-03-10T12:57:22.406Z,96527.16
2023-03-10T13:00:20.168Z,96516.22
2023-03-10T13:02:51.454Z,96515.59
2023-03-10T13:05:32.743Z,96494.34
2023-03-10T13:08:13.118Z,96491.66
2023-03-10T13:10:39.960Z,96496.63
2023-03-10T13:13:08.956Z,96489.59
2023-03-10T13:15:36.120Z,96487.75
2023-03-10T13:18:21.063Z,96486.53
2023-03-10T13:20:48.574Z,96476.63
2023-03-10T13:23:29.781Z,96480.75
2023-03-10T13:26:01.505Z,96483.44
2023-03-10T13:28:31.030Z,96492.06
2023-03-10T13:31:18.138Z,96491.66
2023-03-10T13:33:53.257Z,96485.47
2023-03-10T13:36:31.857Z,96489.41
2023-03-10T13:39:01.193Z,96490.44
2023-03-10T13:41:28.162Z,96490.88
2023-03-10T13:43:55.012Z,96483.47
2023-03-10T13:46:26.832Z,96479.75
2023-03-10T13:48:55.358Z,96472.34
2023-03-10T13:51:21.756Z,96483.84
2023-03-10T13:53:52.699Z,96491.28
2023-03-10T13:56:29.043Z,96496.03
2023-03-10T13:59:02.622Z,96499.91
2023-03-10T14:01:32.679Z,96490.03
2023-03-10T14:04:05.614Z,96497.84
2023-03-10T14:06:32.787Z,96507.16
2023-03-10T14:09:17.924Z,96509.63
2023-03-10T14:11:46.902Z,96511.25
2023-03-10T14:14:26.249Z,96515.78
2023-03-10T14:16:56.258Z,96519.28
2023-03-10T14:19:39.424Z,96541.75
2023-03-10T14:22:37.990Z,96560.50
2023-03-10T14:25:16.532Z,96560.91
2023-03-10T14:27:56.469Z,96575.34
2023-03-10T14:32:48.308Z,96572.03
2023-03-10T14:35:17.150Z,96589.13
2023-03-10T14:37:43.566Z,96592.81
2023-03-10T14:40:10.853Z,96577.78
2023-03-10T14:42:39.618Z,96583.34
2023-03-10T14:45:31.276Z,96595.88
2023-03-10T14:47:59.875Z,96585.38
2023-03-10T14:50:28.084Z,96598.72
2023-03-10T14:52:54.623Z,96595.25
2023-03-10T14:55:21.763Z,96588.66
2023-03-10T14:57:58.719Z,96593.53
2023-03-10T15:00:25.392Z,96596.00
2023-03-10T15:02:51.774Z,96605.50
2023-03-10T15:05:21.516Z,96625.00
2023-03-10T15:07:51.644Z,96613.41
2023-03-10T15:10:20.986Z,96615.22
2023-03-10T15:12:49.984Z,96601.38
2023-03-10T15:15:18.194Z,96612.69
2023-03-10T15:17:45.302Z,96618.59
2023-03-10T15:20:20.568Z,96612.97
2023-03-10T15:22:47.336Z,96639.94
2023-03-10T15:25:16.106Z,96634.06
2023-03-10T15:27:43.243Z,96645.56
2023-03-10T15:30:17.989Z,96642.19
2023-03-10T15:32:44.700Z,96651.78
2023-03-10T15:35:12.284Z,96652.16
2023-03-10T15:37:39.596Z,96637.81
2023-03-10T15:40:07.064Z,96657.81
2023-03-10T15:42:33.803Z,96652.28
2023-03-10T15:45:00.679Z,96650.56
2023-03-10T15:47:28.141Z,96673.06
2023-03-10T15:49:54.527Z,96644.72
2023-03-10T15:52:23.251Z,96645.88
2023-03-10T15:54:49.971Z,96654.88
2023-03-10T15:57:16.593Z,96649.88
2023-03-10T15:59:43.206Z,96667.47
2023-03-10T16:02:11.890Z,96655.53
2023-03-10T16:04:38.478Z,96673.69
2023-03-10T16:07:05.185Z,96681.41
2023-03-10T16:09:33.052Z,96694.41
2023-03-10T16:11:59.515Z,96691.19
2023-03-10T16:14:26.289Z,96693.66
2023-03-10T16:16:53.326Z,96701.03
2023-03-10T16:19:19.961Z,96702.13
2023-03-10T16:21:46.778Z,96706.56
2023-03-10T16:24:13.511Z,96701.41
2023-03-10T16:26:42.060Z,96705.94
2023-03-10T16:29:09.378Z,96709.03
2023-03-10T16:31:35.903Z,96719.06
2023-03-10T16:34:02.407Z,96732.94
2023-03-10T16:36:29.542Z,96744.44
2023-03-10T16:38:57.729Z,96742.97
2023-03-10T16:41:24.636Z,96699.03
2023-03-10T16:43:52.203Z,96740.22
2023-03-10T16:46:26.137Z,96766.66
2023-03-10T16:48:54.575Z,96747.19
2023-03-10T16:51:37.551Z,96748.38
2023-03-10T16:54:12.877Z,96757.84
2023-03-10T16:56:51.069Z,96799.53
2023-03-10T16:59:24.539Z,96808.31
2023-03-10T17:01:51.689Z,96890.28
2023-03-10T17:04:19.185Z,96891.44
2023-03-10T17:06:46.687Z,96911.94
2023-03-10T17:09:15.345Z,96954.56
2023-03-10T17:11:46.481Z,96968.97
2023-03-10T17:14:15.593Z,96972.09
2023-03-10T17:16:45.661Z,97000.94
2023-03-10T17:19:30.258Z,96994.84
2023-03-10T17:21:58.193Z,97049.44
2023-03-10T17:24:25.083Z,97031.13
2023-03-10T17:26:51.742Z,97079.84
2023-03-10T17:29:18.287Z,97078.97
2023-03-10T17:31:48.730Z,97095.69
2023-03-10T17:34:15.200Z,97116.69
2023-03-10T17:36:41.733Z,97121.09
2023-03-10T17:39:08.557Z,97126.22
2023-03-10T17:41:36.245Z,97147.41
2023-03-10T17:44:06.150Z,97137.69
2023-03-10T17:46:32.856Z,97170.97
2023-03-10T17:49:00.230Z,97157.09
2023-03-10T17:51:29.838Z,97202.06
2023-03-10T17:53:58.740Z,97217.34
2023-03-10T17:56:25.961Z,97198.44
2023-03-10T17:58:54.396Z,97201.91
2023-03-10T18:01:23.666Z,97219.16
2023-03-10T18:03:50.133Z,97237.91
2023-03-10T18:06:19.685Z,97258.34
2023-03-10T18:08:46.742Z,97259.31
2023-03-10T18:11:13.537Z,97260.97
2023-03-10T18:13:40.353Z,97285.97
2023-03-10T18:16:08.827Z,97289.03
2023-03-10T18:18:35.344Z,97322.34
2023-03-10T18:21:02.148Z,97346.81
2023-03-10T18:23:28.605Z,97351.66
2023-03-10T18:25:55.081Z,97378.63
2023-03-10T18:28:23.060Z,97368.19
2023-03-10T18:30:51.794Z,97402.81
2023-03-10T18:33:18.882Z,97379.63
2023-03-10T18:35:48.541Z,97409.88
2023-03-10T18:38:17.129Z,97419.50
2023-03-10T18:40:44.226Z,97441.97
2023-03-10T18:43:10.874Z,97445.06
2023-03-10T18:45:39.809Z,97456.13
2023-03-10T18:48:07.533Z,97434.06
2023-03-10T18:50:33.958Z,97469.22
2023-03-10T18:53:00.780Z,97465.47
2023-03-10T18:55:27.206Z,97474.88
2023-03-10T18:57:53.632Z,97524.53
2023-03-10T19:00:21.536Z,97503.41
2023-03-10T19:02:50.500Z,97502.72
2023-03-10T19:05:16.970Z,97522.41
2023-03-10T19:07:43.621Z,97530.91
2023-03-10T19:10:13.730Z,97542.44
2023-03-10T19:12:41.117Z,97547.13
2023-03-10T19:15:09.135Z,97568.25
2023-03-10T19:17:37.792Z,97589.38
2023-03-10T19:20:07.683Z,97572.97
2023-03-10T19:22:35.298Z,97589.16
2023-03-10T19:25:03.659Z,97597.09
2023-03-10T19:27:30.870Z,97617.50
2023-03-10T19:29:57.913Z,97617.75
2023-03-10T19:32:26.021Z,97623.97
2023-03-10T19:34:52.845Z,97631.88
2023-03-10T19:37:20.933Z,97635.13
2023-03-10T19:39:47.436Z,97659.63
2023-03-10T19:42:13.830Z,97639.91
2023-03-10T19:44:40.193Z,97658.53
2023-03-10T19:47:06.742Z,97659.94
2023-03-10T19:49:34.118Z,97689.13
2023-03-10T19:52:01.769Z,97693.06
2023-03-10T19:54:28.216Z,97699.78
2023-03-10T19:56:54.962Z,97720.19
2023-03-10T19:59:21.342Z,97729.53
2023-03-10T20:01:49.223Z,97743.72
2023-03-10T20:04:16.157Z,97754.53
2023-03-10T20:06:42.614Z,97778.28
2023-03-10T20:09:10.744Z,97775.16
2023-03-10T20:11:39.250Z,97786.69
2023-03-10T20:14:06.190Z,97784.66
2023-03-10T20:16:38.221Z,97793.66
2023-03-10T20:19:04.825Z,97800.63
2023-03-10T20:21:31.215Z,97796.19
2023-03-10T20:23:58.001Z,97798.09
2023-03-10T20:26:24.553Z,97825.09
2023-03-10T20:28:51.349Z,97816.09
2023-03-10T20:31:20.995Z,97817.91
2023-03-10T20:33:48.508Z,97829.66
2023-03-10T20:36:15.841Z,97838.78
2023-03-10T20:38:44.112Z,97860.84
2023-03-10T20:41:15.757Z,97843.19
2023-03-10T20:43:43.473Z,97863.00
2023-03-10T20:46:10.527Z,97856.06
2023-03-10T20:48:37.295Z,97855.44
2023-03-10T20:51:04.447Z,97876.81
2023-03-10T20:53:33.481Z,97866.00
2023-03-10T20:56:00.753Z,97874.53
2023-03-10T20:58:27.755Z,97886.31
2023-03-10T21:00:54.207Z,97894.56
2023-03-10T21:03:23.569Z,97901.53
2023-03-10T21:05:50.094Z,97907.75
2023-03-10T21:08:16.609Z,97903.69
2023-03-10T21:10:44.699Z,97908.72
2023-03-10T21:13:11.722Z,97917.38
2023-03-10T21:15:39.848Z,97918.66
2023-03-10T21:18:06.525Z,97922.28
2023-03-10T21:20:34.325Z,97899.84
2023-03-10T21:23:00.794Z,97924.53
2023-03-10T21:25:28.257Z,97934.28
2023-03-10T21:27:58.950Z,97927.31
2023-03-10T21:30:30.442Z,97933.56
2023-03-10T21:32:58.385Z,97946.53
2023-03-10T21:35:26.493Z,97942.69
2023-03-10T21:37:55.564Z,97941.00
2023-03-10T21:40:24.072Z,97944.13
2023-03-10T21:42:51.135Z,97944.59
2023-03-10T21:45:21.498Z,97947.25
2023-03-10T21:47:48.368Z,97957.22
2023-03-10T21:50:17.617Z,97960.94
2023-03-10T21:52:44.348Z,97963.09
2023-03-10T21:55:19.478Z,97977.94
2023-03-10T21:57:46.888Z,97968.69
2023-03-10T22:00:15.091Z,97993.03
2023-03-10T22:02:42.375Z,98006.25
2023-03-10T22:05:12.523Z,98008.66
2023-03-10T22:07:39.472Z,98012.25
2023-03-10T22:10:07.319Z,98020.25
2023-03-10T22:12:34.128Z,98024.00
2023-03-10T22:15:00.745Z,98029.38
2023-03-10T22:17:29.412Z,98030.59
2023-03-10T22:19:56.012Z,98027.25
2023-03-10T22:22:22.981Z,98044.63
2023-03-10T22:24:49.731Z,98035.28
2023-03-10T22:27:17.190Z,98044.34
2023-03-10T22:29:43.786Z,98045.84
2023-03-10T22:32:10.794Z,98068.22
2023-03-10T22:34:37.715Z,98066.53
2023-03-10T22:37:04.291Z,98069.91
2023-03-10T22:39:31.274Z,98074.34
2023-03-10T22:41:57.663Z,98098.31
2023-03-10T22:44:24.819Z,98078.16
2023-03-10T22:46:51.319Z,98097.38
2023-03-10T22:49:19.421Z,98097.66
2023-03-10T22:51:45.843Z,98093.78
2023-03-10T22:54:12.718Z,98104.53
2023-03-10T22:56:39.116Z,98106.03
2023-03-10T22:59:05.885Z,98104.84
2023-03-10T23:01:32.457Z,98114.88
2023-03-10T23:03:59.307Z,98123.53
2023-03-10T23:06:28.944Z,98128.19
2023-03-10T23:08:59.226Z,98138.34
2023-03-10T23:11:26.260Z,98140.75
2023-03-10T23:13:53.308Z,98150.88
2023-03-10T23:16:19.930Z,98146.03
2023-03-10T23:18:47.010Z,98145.94
2023-03-10T23:21:14.208Z,98144.59
2023-03-10T23:23:43.654Z,98155.25
2023-03-10T23:26:11.618Z,98151.63
2023-03-10T23:28:38.567Z,98156.53
2023-03-10T23:31:05.713Z,98155.56
2023-03-10T23:33:32.347Z,98156.28
2023-03-10T23:35:58.903Z,98157.88
2023-03-10T23:38:26.171Z,98158.59
2023-03-10T23:40:53.703Z,98160.31
2023-03-10T23:43:20.144Z,98166.63
2023-03-10T23:45:47.170Z,98170.25
2023-03-10T23:48:16.749Z,98168.97
2023-03-10T23:50:45.423Z,98171.81
2023-03-10T23:53:14.237Z,98187.00
2023-03-10T23:55:43.834Z,98195.97
2023-03-10T23:58:11.932Z,98184.06
